createdAt,value
2023-02-23T00:00:08.775Z,100.00
2023-02-23T00:03:11.592Z,100.00
2023-02-23T00:06:14.430Z,100.00
2023-02-23T00:09:23.462Z,100.00
2023-02-23T00:12:27.192Z,100.00
2023-02-23T00:15:30.136Z,100.00
2023-02-23T00:18:41.642Z,100.00
2023-02-23T00:21:45.670Z,100.00
2023-02-23T00:24:50.382Z,100.00
2023-02-23T00:27:53.284Z,100.00
2023-02-23T00:30:56.099Z,100.00
2023-02-23T00:34:00.981Z,100.00
2023-02-23T00:37:03.672Z,100.00
2023-02-23T00:40:14.814Z,100.00
2023-02-23T00:43:19.107Z,100.00
2023-02-23T00:46:23.910Z,100.00
2023-02-23T00:49:27.060Z,100.00
2023-02-23T00:52:30.198Z,100.00
2023-02-23T00:55:32.875Z,100.00
2023-02-23T00:58:35.707Z,100.00
2023-02-23T01:01:39.202Z,100.00
2023-02-23T01:04:42.131Z,100.00
2023-02-23T01:07:47.564Z,100.00
2023-02-23T01:10:53.759Z,100.00
2023-02-23T01:13:58.275Z,100.00
2023-02-23T01:17:00.950Z,100.00
2023-02-23T01:20:13.387Z,100.00
2023-02-23T01:23:16.864Z,100.00
2023-02-23T01:26:30.632Z,100.00
2023-02-23T01:29:33.438Z,100.00
2023-02-23T01:32:37.970Z,100.00
2023-02-23T01:35:40.745Z,100.00
2023-02-23T01:38:43.536Z,100.00
2023-02-23T01:41:46.341Z,100.00
2023-02-23T01:44:50.619Z,100.00
2023-02-23T01:47:56.866Z,100.00
2023-02-23T01:51:12.030Z,100.00
2023-02-23T01:54:18.942Z,100.00
2023-02-23T01:57:25.209Z,100.00
2023-02-23T02:00:28.552Z,100.00
2023-02-23T02:03:46.387Z,100.00
2023-02-23T02:06:53.791Z,100.00
2023-02-23T02:10:13.086Z,100.00
2023-02-23T02:13:20.865Z,100.00
2023-02-23T02:16:42.773Z,100.00
2023-02-23T02:19:51.648Z,100.00
2023-02-23T02:23:31.557Z,100.00
2023-02-23T02:26:46.459Z,100.00
2023-02-23T02:30:17.052Z,100.00
2023-02-23T02:33:44.125Z,100.00
2023-02-23T02:37:05.121Z,100.00
2023-02-23T02:40:17.667Z,100.00
2023-02-23T02:43:27.873Z,100.00
2023-02-23T02:46:38.824Z,100.00
2023-02-23T02:49:46.306Z,100.00
2023-02-23T02:52:56.531Z,100.00
2023-02-23T02:56:00.628Z,100.00
2023-02-23T02:59:03.786Z,100.00
2023-02-23T03:02:25.909Z,100.00
2023-02-23T03:05:57.805Z,100.00
2023-02-23T03:09:30.829Z,100.00
2023-02-23T03:13:37.231Z,100.00
2023-02-23T03:17:29.353Z,100.00
2023-02-23T03:20:53.655Z,100.00
2023-02-23T03:24:36.516Z,100.00
2023-02-23T03:27:57.682Z,100.00
2023-02-23T03:31:44.432Z,100.00
2023-02-23T03:35:12.669Z,100.00
2023-02-23T03:39:03.218Z,100.00
2023-02-23T03:42:30.428Z,100.00
2023-02-23T03:45:52.192Z,100.00
2023-02-23T03:49:16.339Z,100.00
2023-02-23T03:52:41.089Z,100.00
2023-02-23T03:56:06.368Z,100.00
2023-02-23T03:59:28.577Z,100.00
2023-02-23T04:02:50.781Z,100.00
2023-02-23T04:06:13.316Z,100.00
2023-02-23T04:09:34.988Z,100.00
2023-02-23T04:13:03.321Z,100.00
2023-02-23T04:16:08.672Z,100.00
2023-02-23T04:19:12.289Z,100.00
2023-02-23T04:22:15.180Z,100.00
2023-02-23T04:25:19.490Z,100.00
2023-02-23T04:28:23.556Z,100.00
2023-02-23T04:31:26.679Z,100.00
2023-02-23T04:34:29.757Z,100.00
2023-02-23T04:37:32.894Z,100.00
2023-02-23T04:40:35.892Z,100.00
2023-02-23T04:43:38.664Z,100.00
2023-02-23T04:46:41.310Z,100.00
2023-02-23T04:49:44.569Z,100.00
2023-02-23T04:52:47.848Z,100.00
2023-02-23T04:55:50.574Z,100.00
2023-02-23T04:58:53.723Z,100.00
2023-02-23T05:01:56.736Z,100.00
2023-02-23T05:04:59.434Z,100.00
2023-02-23T05:08:02.078Z,100.00
2023-02-23T05:11:06.664Z,100.00
2023-02-23T05:14:12.757Z,100.00
2023-02-23T05:17:15.601Z,100.00
2023-02-23T05:20:18.428Z,100.00
2023-02-23T05:23:22.218Z,100.00
2023-02-23T05:26:25.020Z,100.00
2023-02-23T05:29:27.780Z,100.00
2023-02-23T05:32:30.618Z,100.00
2023-02-23T05:35:33.533Z,100.00
2023-02-23T05:38:36.487Z,100.00
2023-02-23T05:41:39.279Z,100.00
2023-02-23T05:44:41.991Z,100.00
2023-02-23T05:47:44.920Z,100.00
2023-02-23T05:50:47.647Z,100.00
2023-02-23T05:53:50.403Z,100.00
2023-02-23T05:56:53.087Z,100.00
2023-02-23T05:59:56.069Z,100.00
2023-02-23T06:02:58.945Z,100.00
2023-02-23T06:06:01.677Z,100.00
2023-02-23T06:09:04.991Z,100.00
2023-02-23T06:12:07.765Z,100.00
2023-02-23T06:15:11.077Z,100.00
2023-02-23T06:18:13.840Z,100.00
2023-02-23T06:21:16.668Z,100.00
2023-02-23T06:24:19.980Z,100.00
2023-02-23T06:27:22.863Z,100.00
2023-02-23T06:30:25.863Z,100.00
2023-02-23T06:33:28.695Z,99.63
2023-02-23T06:36:31.393Z,99.95
2023-02-23T06:39:34.164Z,98.72
2023-02-23T06:42:36.985Z,98.01
2023-02-23T06:45:39.853Z,98.04
2023-02-23T06:48:42.820Z,97.25
2023-02-23T06:51:45.777Z,96.15
2023-02-23T06:54:50.219Z,94.98
2023-02-23T06:57:53.664Z,94.06
2023-02-23T07:00:59.748Z,92.02
2023-02-23T07:04:02.528Z,91.57
2023-02-23T07:07:05.693Z,90.80
2023-02-23T07:10:09.484Z,90.01
2023-02-23T07:13:15.224Z,90.47
2023-02-23T07:16:18.127Z,91.75
2023-02-23T07:19:20.845Z,90.85
2023-02-23T07:22:25.528Z,90.46
2023-02-23T07:25:28.795Z,90.84
2023-02-23T07:28:31.573Z,89.82
2023-02-23T07:31:34.363Z,87.78
2023-02-23T07:34:38.046Z,87.71
2023-02-23T07:37:40.759Z,88.03
2023-02-23T07:40:43.426Z,87.56
2023-02-23T07:43:46.174Z,87.65
2023-02-23T07:46:49.731Z,86.56
2023-02-23T07:49:52.466Z,86.36
2023-02-23T07:52:55.229Z,86.65
2023-02-23T07:55:58.359Z,85.86
2023-02-23T07:59:01.122Z,87.01
2023-02-23T08:02:03.830Z,85.92
2023-02-23T08:05:07.135Z,86.86
2023-02-23T08:08:09.847Z,86.52
2023-02-23T08:11:12.645Z,86.26
2023-02-23T08:14:15.496Z,85.26
2023-02-23T08:17:20.253Z,85.68
2023-02-23T08:20:23.359Z,84.99
2023-02-23T08:23:26.192Z,85.24
2023-02-23T08:26:29.059Z,84.10
2023-02-23T08:29:32.094Z,84.24
2023-02-23T08:32:35.525Z,84.58
2023-02-23T08:35:38.488Z,84.35
2023-02-23T08:38:41.416Z,82.67
2023-02-23T08:41:45.092Z,82.42
2023-02-23T08:44:49.534Z,81.97
2023-02-23T08:47:52.265Z,80.79
2023-02-23T08:50:58.677Z,80.69
2023-02-23T08:54:02.059Z,80.20
2023-02-23T08:57:05.110Z,79.16
2023-02-23T09:00:14.468Z,79.79
2023-02-23T09:03:19.804Z,80.84
2023-02-23T09:06:25.695Z,79.35
2023-02-23T09:09:28.508Z,78.61
2023-02-23T09:12:31.445Z,79.55
2023-02-23T09:15:34.578Z,79.62
2023-02-23T09:18:37.716Z,78.12
2023-02-23T09:21:40.568Z,78.50
2023-02-23T09:24:43.336Z,78.76
2023-02-23T09:27:55.886Z,79.48
2023-02-23T09:31:06.674Z,79.45
2023-02-23T09:34:10.491Z,78.35
2023-02-23T09:37:13.261Z,77.93
2023-02-23T09:40:19.536Z,78.61
2023-02-23T09:43:34.350Z,78.40
2023-02-23T09:46:49.312Z,79.43
2023-02-23T09:49:52.381Z,78.78
2023-02-23T09:53:04.539Z,78.27
2023-02-23T09:56:17.318Z,77.96
2023-02-23T09:59:21.525Z,78.14
2023-02-23T10:02:39.903Z,77.72
2023-02-23T10:05:48.064Z,77.26
2023-02-23T10:09:04.199Z,76.94
2023-02-23T10:12:10.948Z,77.12
2023-02-23T10:15:35.567Z,77.64
2023-02-23T10:18:55.066Z,76.76
2023-02-23T10:22:02.747Z,76.97
2023-02-23T10:25:11.768Z,77.64
2023-02-23T10:28:21.752Z,77.14
2023-02-23T10:31:31.706Z,76.44
2023-02-23T10:34:35.824Z,77.08
2023-02-23T10:37:38.492Z,77.17
2023-02-23T10:40:41.935Z,77.34
2023-02-23T10:43:44.750Z,77.19
2023-02-23T10:46:54.201Z,77.51
2023-02-23T10:49:58.815Z,76.80
2023-02-23T10:53:17.825Z,76.69
2023-02-23T10:56:22.363Z,76.96
2023-02-23T10:59:25.269Z,76.65
2023-02-23T11:02:31.734Z,76.16
2023-02-23T11:05:44.234Z,75.48
2023-02-23T11:08:46.982Z,75.60
2023-02-23T11:11:58.311Z,73.66
2023-02-23T11:15:48.113Z,75.13
2023-02-23T11:19:03.125Z,73.81
2023-02-23T11:22:06.942Z,72.61
2023-02-23T11:25:32.268Z,70.90
2023-02-23T11:28:37.410Z,70.22
2023-02-23T11:31:47.625Z,68.35
2023-02-23T11:35:29.596Z,67.42
2023-02-23T11:38:34.610Z,66.28
2023-02-23T11:41:37.609Z,66.80
2023-02-23T11:44:40.335Z,65.43
2023-02-23T11:47:49.534Z,64.14
2023-02-23T11:50:53.406Z,64.90
2023-02-23T11:53:56.633Z,64.92
2023-02-23T11:57:02.792Z,63.61
2023-02-23T12:00:20.858Z,63.54
2023-02-23T12:03:26.350Z,62.19
2023-02-23T12:06:35.360Z,61.95
2023-02-23T12:09:39.125Z,62.08
2023-02-23T12:13:04.714Z,61.71
2023-02-23T12:16:18.150Z,61.36
2023-02-23T12:19:32.105Z,60.36
2023-02-23T12:22:40.238Z,60.06
2023-02-23T12:25:54.462Z,59.40
2023-02-23T12:29:02.750Z,60.74
2023-02-23T12:35:45.865Z,58.98
2023-02-23T12:39:05.486Z,54.23
2023-02-23T12:42:17.233Z,54.85
2023-02-23T12:45:38.123Z,53.25
2023-02-23T12:48:52.793Z,51.83
2023-02-23T12:52:02.420Z,53.64
2023-02-23T12:55:11.192Z,54.30
2023-02-23T12:58:35.367Z,52.67
2023-02-23T13:02:16.759Z,51.41
2023-02-23T13:09:18.772Z,49.10
2023-02-23T13:13:06.832Z,49.11
2023-02-23T13:16:23.131Z,49.71
2023-02-23T13:19:59.033Z,52.46
2023-02-23T13:23:11.040Z,54.58
2023-02-23T13:26:21.005Z,54.72
2023-02-23T13:29:31.901Z,55.41
2023-02-23T13:32:38.994Z,55.47
2023-02-23T13:35:43.233Z,56.85
2023-02-23T13:39:42.320Z,57.88
2023-02-23T13:43:01.503Z,57.37
2023-02-23T13:46:25.682Z,59.17
2023-02-23T13:49:42.371Z,60.67
2023-02-23T13:52:46.059Z,62.27
2023-02-23T13:55:51.953Z,62.27
2023-02-23T13:59:00.800Z,63.19
2023-02-23T14:02:18.506Z,63.62
2023-02-23T14:05:31.905Z,64.37
2023-02-23T14:08:37.442Z,65.79
2023-02-23T14:12:03.434Z,64.93
2023-02-23T14:15:28.361Z,65.23
2023-02-23T14:18:33.509Z,65.95
2023-02-23T14:21:43.595Z,66.20
2023-02-23T14:24:46.799Z,66.17
2023-02-23T14:28:00.803Z,66.89
2023-02-23T14:31:21.259Z,66.67
2023-02-23T14:34:45.789Z,67.01
2023-02-23T14:37:57.086Z,66.68
2023-02-23T14:41:02.674Z,66.46
2023-02-23T14:44:31.601Z,67.04
2023-02-23T14:47:43.147Z,67.09
2023-02-23T14:50:47.438Z,67.55
2023-02-23T14:53:55.370Z,67.44
2023-02-23T14:57:00.721Z,67.65
2023-02-23T15:00:13.330Z,67.74
2023-02-23T15:03:16.256Z,67.82
2023-02-23T15:06:25.041Z,67.34
2023-02-23T15:09:43.948Z,67.34
2023-02-23T15:12:47.937Z,67.38
2023-02-23T15:15:50.804Z,68.34
2023-02-23T15:18:53.912Z,68.67
2023-02-23T15:21:57.786Z,68.86
2023-02-23T15:25:02.819Z,70.11
2023-02-23T15:28:22.836Z,70.66
2023-02-23T15:31:30.489Z,70.69
2023-02-23T15:34:33.406Z,70.79
2023-02-23T15:37:45.382Z,70.81
2023-02-23T15:40:51.701Z,70.62
2023-02-23T15:43:56.383Z,71.11
2023-02-23T15:47:01.837Z,71.97
2023-02-23T15:50:09.530Z,72.61
2023-02-23T15:53:24.910Z,73.01
2023-02-23T15:56:30.133Z,74.20
2023-02-23T15:59:37.905Z,74.22
2023-02-23T16:02:41.486Z,74.54
2023-02-23T16:06:05.046Z,74.44
2023-02-23T16:09:21.400Z,75.16
2023-02-23T16:12:29.458Z,75.24
2023-02-23T16:15:37.793Z,76.10
2023-02-23T16:18:42.097Z,76.30
2023-02-23T16:21:54.035Z,76.71
2023-02-23T16:25:00.924Z,76.94
2023-02-23T16:28:13.861Z,77.24
2023-02-23T16:31:25.983Z,77.70
2023-02-23T16:34:37.408Z,78.12
2023-02-23T16:38:23.175Z,78.59
2023-02-23T16:41:28.123Z,78.93
2023-02-23T16:44:42.974Z,79.43
2023-02-23T16:47:50.345Z,79.44
2023-02-23T16:50:53.429Z,79.38
2023-02-23T16:53:57.245Z,78.87
2023-02-23T16:57:00.250Z,78.63
2023-02-23T17:00:14.718Z,78.57
2023-02-23T17:03:26.061Z,78.04
2023-02-23T17:06:29.159Z,77.84
2023-02-23T17:09:34.743Z,77.57
2023-02-23T17:12:39.424Z,77.24
2023-02-23T17:15:54.225Z,77.66
2023-02-23T17:19:00.047Z,77.86
2023-02-23T17:22:05.526Z,77.68
2023-02-23T17:25:09.109Z,78.30
2023-02-23T17:28:12.004Z,78.50
2023-02-23T17:31:16.794Z,78.38
2023-02-23T17:34:20.008Z,79.01
2023-02-23T17:37:23.034Z,79.16
2023-02-23T17:40:31.377Z,79.61
2023-02-23T17:43:35.474Z,78.73
2023-02-23T17:46:38.824Z,78.52
2023-02-23T17:49:41.991Z,78.62
2023-02-23T17:52:45.882Z,78.07
2023-02-23T17:55:51.355Z,78.18
2023-02-23T17:58:56.321Z,77.37
2023-02-23T18:01:59.393Z,77.62
2023-02-23T18:05:02.448Z,78.14
2023-02-23T18:08:06.393Z,78.04
2023-02-23T18:11:09.528Z,77.68
2023-02-23T18:14:14.649Z,77.75
2023-02-23T18:17:17.579Z,77.74
2023-02-23T18:20:21.888Z,77.71
2023-02-23T18:23:29.879Z,77.90
2023-02-23T18:26:32.910Z,78.03
2023-02-23T18:29:36.524Z,77.68
2023-02-23T18:32:39.830Z,77.74
2023-02-23T18:35:45.723Z,77.90
2023-02-23T18:38:49.343Z,78.14
2023-02-23T18:41:52.600Z,77.74
2023-02-23T18:44:55.804Z,77.98
2023-02-23T18:47:58.874Z,77.90
2023-02-23T18:51:05.095Z,78.09
2023-02-23T18:54:16.903Z,77.81
2023-02-23T18:57:19.910Z,77.62
2023-02-23T19:00:23.342Z,77.27
2023-02-23T19:03:26.447Z,77.46
2023-02-23T19:06:29.884Z,77.42
2023-02-23T19:09:33.084Z,77.38
2023-02-23T19:12:36.310Z,76.92
2023-02-23T19:15:39.852Z,77.26
2023-02-23T19:18:42.753Z,77.30
2023-02-23T19:21:45.921Z,77.12
2023-02-23T19:24:49.266Z,77.03
2023-02-23T19:27:52.526Z,77.43
2023-02-23T19:31:10.524Z,77.23
2023-02-23T19:34:15.367Z,77.60
2023-02-23T19:37:18.463Z,78.06
2023-02-23T19:40:24.051Z,78.03
2023-02-23T19:43:27.818Z,78.79
2023-02-23T19:46:31.208Z,78.46
2023-02-23T19:49:34.304Z,78.48
2023-02-23T19:52:39.178Z,79.02
2023-02-23T19:55:42.417Z,79.80
2023-02-23T19:58:46.916Z,79.64
2023-02-23T20:01:51.743Z,79.61
2023-02-23T20:04:54.928Z,80.32
2023-02-23T20:07:58.154Z,80.55
2023-02-23T20:11:01.264Z,80.10
2023-02-23T20:14:05.283Z,80.58
2023-02-23T20:17:09.353Z,80.17
2023-02-23T20:20:12.899Z,78.91
2023-02-23T20:23:16.573Z,78.86
2023-02-23T20:26:30.994Z,78.71
2023-02-23T20:29:34.493Z,78.25
2023-02-23T20:32:37.689Z,78.41
2023-02-23T20:35:41.446Z,78.37
2023-02-23T20:38:44.549Z,78.26
2023-02-23T20:41:48.097Z,78.00
2023-02-23T20:44:51.151Z,78.21
2023-02-23T20:47:54.258Z,78.29
2023-02-23T20:50:57.874Z,77.92
2023-02-23T20:54:00.762Z,78.28
2023-02-23T20:57:08.010Z,77.71
2023-02-23T21:00:12.343Z,78.13
2023-02-23T21:03:16.418Z,77.95
2023-02-23T21:06:20.771Z,78.21
2023-02-23T21:09:23.704Z,78.50
2023-02-23T21:12:27.990Z,78.12
2023-02-23T21:15:33.013Z,78.47
2023-02-23T21:18:39.402Z,78.50
2023-02-23T21:21:45.084Z,78.70
2023-02-23T21:24:48.341Z,79.26
2023-02-23T21:27:52.019Z,79.19
2023-02-23T21:30:55.453Z,79.10
2023-02-23T21:33:58.515Z,78.55
2023-02-23T21:37:01.792Z,79.28
2023-02-23T21:40:08.469Z,78.84
2023-02-23T21:43:13.150Z,78.71
2023-02-23T21:46:17.158Z,79.02
2023-02-23T21:49:21.591Z,78.77
2023-02-23T21:52:24.249Z,78.75
2023-02-23T21:55:26.920Z,79.11
2023-02-23T21:58:29.858Z,78.53
2023-02-23T22:01:35.505Z,79.08
2023-02-23T22:04:39.233Z,78.90
2023-02-23T22:07:42.413Z,79.11
2023-02-23T22:10:46.567Z,79.03
2023-02-23T22:13:54.618Z,79.03
2023-02-23T22:16:57.851Z,78.95
2023-02-23T22:20:00.547Z,78.72
2023-02-23T22:23:03.657Z,78.57
2023-02-23T22:26:06.655Z,78.25
2023-02-23T22:29:10.630Z,78.12
2023-02-23T22:32:13.565Z,78.11
2023-02-23T22:35:16.623Z,78.22
2023-02-23T22:38:19.585Z,77.84
2023-02-23T22:41:22.719Z,77.67
2023-02-23T22:44:25.687Z,77.47
2023-02-23T22:47:28.498Z,77.57
2023-02-23T22:50:31.648Z,77.87
2023-02-23T22:53:34.463Z,77.94
2023-02-23T22:56:37.218Z,78.40
2023-02-23T22:59:40.033Z,78.20
2023-02-23T23:02:43.237Z,78.34
2023-02-23T23:05:51.260Z,78.58
2023-02-23T23:08:56.311Z,78.48
2023-02-23T23:11:59.361Z,79.08
2023-02-23T23:15:07.400Z,79.51
2023-02-23T23:18:14.612Z,79.18
2023-02-23T23:21:22.154Z,79.17
2023-02-23T23:24:25.653Z,79.48
2023-02-23T23:27:33.446Z,79.99
2023-02-23T23:30:37.489Z,79.95
2023-02-23T23:33:47.822Z,80.24
2023-02-23T23:36:50.553Z,80.31
2023-02-23T23:39:59.506Z,80.90
2023-02-23T23:43:02.256Z,81.12
2023-02-23T23:46:06.242Z,81.43
2023-02-23T23:49:16.111Z,82.08
2023-02-23T23:52:18.813Z,82.21
2023-02-23T23:55:22.544Z,82.85
2023-02-23T23:58:26.979Z,82.86
